sensor_id;sensor_type;location;lat;lon;timestamp;P1;durP1;ratioP1;P2;durP2;ratioP2
70825;SDS011;58446;41.490;22.098;2023-05-18T00:02:22;13.37;;;5.30;;
70825;SDS011;58446;41.490;22.098;2023-05-18T00:04:50;11.05;;;5.20;;
70825;SDS011;58446;41.490;22.098;2023-05-18T00:07:16;10.25;;;4.78;;
70825;SDS011;58446;41.490;22.098;2023-05-18T00:09:42;11.50;;;4.83;;
70825;SDS011;58446;41.490;22.098;2023-05-18T00:12:08;12.80;;;4.93;;
70825;SDS011;58446;41.490;22.098;2023-05-18T00:14:34;12.10;;;4.68;;
70825;SDS011;58446;41.490;22.098;2023-05-18T00:17:00;9.00;;;4.67;;
70825;SDS011;58446;41.490;22.098;2023-05-18T00:19:26;9.40;;;4.13;;
70825;SDS011;58446;41.490;22.098;2023-05-18T00:21:54;10.07;;;4.22;;
70825;SDS011;58446;41.490;22.098;2023-05-18T00:24:21;8.48;;;3.60;;
70825;SDS011;58446;41.490;22.098;2023-05-18T00:26:47;10.23;;;4.67;;
70825;SDS011;58446;41.490;22.098;2023-05-18T00:29:15;9.82;;;4.38;;
70825;SDS011;58446;41.490;22.098;2023-05-18T00:31:41;10.40;;;4.18;;
70825;SDS011;58446;41.490;22.098;2023-05-18T00:34:10;13.93;;;5.13;;
70825;SDS011;58446;41.490;22.098;2023-05-18T00:36:37;12.80;;;4.00;;
70825;SDS011;58446;41.490;22.098;2023-05-18T00:39:04;11.05;;;4.07;;
70825;SDS011;58446;41.490;22.098;2023-05-18T00:41:30;9.93;;;4.57;;
70825;SDS011;58446;41.490;22.098;2023-05-18T00:43:57;13.50;;;4.45;;
70825;SDS011;58446;41.490;22.098;2023-05-18T00:46:24;7.45;;;4.00;;
70825;SDS011;58446;41.490;22.098;2023-05-18T00:48:50;10.53;;;4.13;;
70825;SDS011;58446;41.490;22.098;2023-05-18T00:51:20;10.57;;;3.97;;
70825;SDS011;58446;41.490;22.098;2023-05-18T00:53:50;10.25;;;4.93;;
70825;SDS011;58446;41.490;22.098;2023-05-18T00:56:18;8.75;;;4.97;;
70825;SDS011;58446;41.490;22.098;2023-05-18T00:58:45;11.93;;;4.15;;
70825;SDS011;58446;41.490;22.098;2023-05-18T01:01:11;12.27;;;4.47;;
70825;SDS011;58446;41.490;22.098;2023-05-18T01:03:37;9.48;;;4.00;;
70825;SDS011;58446;41.490;22.098;2023-05-18T01:06:07;9.80;;;4.60;;
70825;SDS011;58446;41.490;22.098;2023-05-18T01:08:33;13.95;;;4.53;;
70825;SDS011;58446;41.490;22.098;2023-05-18T01:14:17;7.93;;;4.07;;
70825;SDS011;58446;41.490;22.098;2023-05-18T01:16:53;11.88;;;4.70;;
70825;SDS011;58446;41.490;22.098;2023-05-18T01:19:54;9.98;;;4.18;;
70825;SDS011;58446;41.490;22.098;2023-05-18T01:25:32;12.60;;;5.25;;
70825;SDS011;58446;41.490;22.098;2023-05-18T01:28:00;12.63;;;4.60;;
70825;SDS011;58446;41.490;22.098;2023-05-18T01:30:33;10.27;;;4.65;;
70825;SDS011;58446;41.490;22.098;2023-05-18T01:33:05;10.82;;;5.13;;
70825;SDS011;58446;41.490;22.098;2023-05-18T01:35:32;15.05;;;5.10;;
70825;SDS011;58446;41.490;22.098;2023-05-18T01:37:58;11.20;;;5.73;;
70825;SDS011;58446;41.490;22.098;2023-05-18T01:40:24;12.10;;;5.13;;
70825;SDS011;58446;41.490;22.098;2023-05-18T01:42:54;9.60;;;5.00;;
70825;SDS011;58446;41.490;22.098;2023-05-18T01:45:25;10.27;;;4.90;;
70825;SDS011;58446;41.490;22.098;2023-05-18T01:47:55;11.50;;;5.17;;
70825;SDS011;58446;41.490;22.098;2023-05-18T01:50:28;12.48;;;5.25;;
70825;SDS011;58446;41.490;22.098;2023-05-18T01:55:35;10.68;;;4.65;;
70825;SDS011;58446;41.490;22.098;2023-05-18T01:58:04;11.73;;;5.03;;
70825;SDS011;58446;41.490;22.098;2023-05-18T02:00:32;11.50;;;4.90;;
70825;SDS011;58446;41.490;22.098;2023-05-18T02:02:58;10.23;;;5.10;;
70825;SDS011;58446;41.490;22.098;2023-05-18T02:05:25;14.93;;;5.60;;
70825;SDS011;58446;41.490;22.098;2023-05-18T02:07:50;10.87;;;5.30;;
70825;SDS011;58446;41.490;22.098;2023-05-18T02:10:16;13.63;;;5.90;;
70825;SDS011;58446;41.490;22.098;2023-05-18T02:12:42;21.77;;;7.72;;
70825;SDS011;58446;41.490;22.098;2023-05-18T02:15:08;12.57;;;4.40;;
70825;SDS011;58446;41.490;22.098;2023-05-18T02:17:34;11.85;;;5.10;;
70825;SDS011;58446;41.490;22.098;2023-05-18T02:20:04;10.82;;;5.07;;
70825;SDS011;58446;41.490;22.098;2023-05-18T02:22:34;14.07;;;5.25;;
70825;SDS011;58446;41.490;22.098;2023-05-18T02:25:01;10.13;;;4.75;;
70825;SDS011;58446;41.490;22.098;2023-05-18T02:27:27;11.83;;;4.73;;
70825;SDS011;58446;41.490;22.098;2023-05-18T02:29:53;13.88;;;4.93;;
70825;SDS011;58446;41.490;22.098;2023-05-18T02:32:19;12.77;;;4.53;;
70825;SDS011;58446;41.490;22.098;2023-05-18T02:34:45;10.43;;;5.00;;
70825;SDS011;58446;41.490;22.098;2023-05-18T02:37:11;10.13;;;4.53;;
70825;SDS011;58446;41.490;22.098;2023-05-18T02:39:38;12.00;;;5.85;;
70825;SDS011;58446;41.490;22.098;2023-05-18T02:42:04;13.82;;;5.80;;
70825;SDS011;58446;41.490;22.098;2023-05-18T02:44:30;9.95;;;4.90;;
70825;SDS011;58446;41.490;22.098;2023-05-18T02:46:56;11.90;;;4.63;;
70825;SDS011;58446;41.490;22.098;2023-05-18T02:49:21;12.20;;;5.45;;
70825;SDS011;58446;41.490;22.098;2023-05-18T02:51:47;9.67;;;5.03;;
70825;SDS011;58446;41.490;22.098;2023-05-18T02:54:13;11.77;;;5.10;;
70825;SDS011;58446;41.490;22.098;2023-05-18T02:56:39;13.67;;;4.70;;
70825;SDS011;58446;41.490;22.098;2023-05-18T02:59:05;10.25;;;4.80;;
70825;SDS011;58446;41.490;22.098;2023-05-18T03:01:32;13.85;;;5.70;;
70825;SDS011;58446;41.490;22.098;2023-05-18T03:03:58;11.32;;;4.90;;
70825;SDS011;58446;41.490;22.098;2023-05-18T03:06:25;12.70;;;5.17;;
70825;SDS011;58446;41.490;22.098;2023-05-18T03:08:51;10.68;;;5.32;;
70825;SDS011;58446;41.490;22.098;2023-05-18T03:11:20;13.20;;;4.90;;
70825;SDS011;58446;41.490;22.098;2023-05-18T03:13:46;14.77;;;5.28;;
70825;SDS011;58446;41.490;22.098;2023-05-18T03:16:13;10.53;;;4.50;;
70825;SDS011;58446;41.490;22.098;2023-05-18T03:18:39;12.13;;;5.38;;
70825;SDS011;58446;41.490;22.098;2023-05-18T03:21:06;11.93;;;5.40;;
70825;SDS011;58446;41.490;22.098;2023-05-18T03:23:32;12.57;;;5.22;;
70825;SDS011;58446;41.490;22.098;2023-05-18T03:25:58;13.63;;;5.43;;
70825;SDS011;58446;41.490;22.098;2023-05-18T03:28:30;10.87;;;4.57;;
70825;SDS011;58446;41.490;22.098;2023-05-18T03:30:56;10.00;;;5.18;;
70825;SDS011;58446;41.490;22.098;2023-05-18T03:33:22;9.13;;;4.95;;
70825;SDS011;58446;41.490;22.098;2023-05-18T03:35:47;16.15;;;4.88;;
70825;SDS011;58446;41.490;22.098;2023-05-18T03:38:13;12.17;;;4.97;;
70825;SDS011;58446;41.490;22.098;2023-05-18T03:40:39;14.35;;;5.82;;
70825;SDS011;58446;41.490;22.098;2023-05-18T03:43:05;14.27;;;4.93;;
70825;SDS011;58446;41.490;22.098;2023-05-18T03:45:30;11.18;;;4.85;;
70825;SDS011;58446;41.490;22.098;2023-05-18T03:47:56;13.43;;;4.97;;
70825;SDS011;58446;41.490;22.098;2023-05-18T03:50:22;10.05;;;5.38;;
70825;SDS011;58446;41.490;22.098;2023-05-18T03:52:48;10.00;;;4.50;;
70825;SDS011;58446;41.490;22.098;2023-05-18T03:55:17;12.27;;;5.10;;
70825;SDS011;58446;41.490;22.098;2023-05-18T03:57:46;10.95;;;5.10;;
70825;SDS011;58446;41.490;22.098;2023-05-18T04:00:15;10.98;;;5.70;;
70825;SDS011;58446;41.490;22.098;2023-05-18T04:02:41;13.23;;;5.05;;
70825;SDS011;58446;41.490;22.098;2023-05-18T04:05:07;14.07;;;5.10;;
70825;SDS011;58446;41.490;22.098;2023-05-18T04:07:34;12.30;;;5.45;;
70825;SDS011;58446;41.490;22.098;2023-05-18T04:10:08;11.25;;;5.35;;
70825;SDS011;58446;41.490;22.098;2023-05-18T04:12:37;12.23;;;5.05;;
70825;SDS011;58446;41.490;22.098;2023-05-18T04:15:04;12.15;;;5.40;;
70825;SDS011;58446;41.490;22.098;2023-05-18T04:17:30;14.13;;;5.50;;
70825;SDS011;58446;41.490;22.098;2023-05-18T04:19:57;11.50;;;5.93;;
70825;SDS011;58446;41.490;22.098;2023-05-18T04:22:23;11.02;;;5.05;;
70825;SDS011;58446;41.490;22.098;2023-05-18T04:24:49;11.90;;;4.90;;
70825;SDS011;58446;41.490;22.098;2023-05-18T04:27:19;14.20;;;5.55;;
70825;SDS011;58446;41.490;22.098;2023-05-18T04:29:44;15.68;;;5.43;;
70825;SDS011;58446;41.490;22.098;2023-05-18T04:32:11;15.98;;;5.78;;
70825;SDS011;58446;41.490;22.098;2023-05-18T04:34:37;11.00;;;5.63;;
70825;SDS011;58446;41.490;22.098;2023-05-18T04:37:03;16.88;;;5.50;;
70825;SDS011;58446;41.490;22.098;2023-05-18T04:39:30;12.05;;;5.15;;
70825;SDS011;58446;41.490;22.098;2023-05-18T04:41:58;12.27;;;6.07;;
70825;SDS011;58446;41.490;22.098;2023-05-18T04:44:25;11.33;;;5.20;;
70825;SDS011;58446;41.490;22.098;2023-05-18T04:46:52;13.38;;;5.53;;
70825;SDS011;58446;41.490;22.098;2023-05-18T04:49:21;12.13;;;6.07;;
70825;SDS011;58446;41.490;22.098;2023-05-18T04:51:53;12.50;;;5.57;;
70825;SDS011;58446;41.490;22.098;2023-05-18T04:54:23;11.45;;;5.43;;
70825;SDS011;58446;41.490;22.098;2023-05-18T04:56:51;10.67;;;5.27;;
70825;SDS011;58446;41.490;22.098;2023-05-18T04:59:17;13.88;;;5.70;;
70825;SDS011;58446;41.490;22.098;2023-05-18T05:01:43;14.15;;;6.05;;
70825;SDS011;58446;41.490;22.098;2023-05-18T05:04:10;10.82;;;5.57;;
70825;SDS011;58446;41.490;22.098;2023-05-18T05:06:36;12.05;;;6.40;;
70825;SDS011;58446;41.490;22.098;2023-05-18T05:09:02;15.37;;;6.30;;
70825;SDS011;58446;41.490;22.098;2023-05-18T05:11:28;13.50;;;5.68;;
70825;SDS011;58446;41.490;22.098;2023-05-18T05:13:54;10.63;;;5.43;;
70825;SDS011;58446;41.490;22.098;2023-05-18T05:16:20;14.83;;;5.30;;
70825;SDS011;58446;41.490;22.098;2023-05-18T05:18:45;17.45;;;7.32;;
70825;SDS011;58446;41.490;22.098;2023-05-18T05:21:11;11.43;;;5.60;;
70825;SDS011;58446;41.490;22.098;2023-05-18T05:23:37;15.55;;;5.85;;
70825;SDS011;58446;41.490;22.098;2023-05-18T05:26:03;10.70;;;5.87;;
70825;SDS011;58446;41.490;22.098;2023-05-18T05:28:28;14.02;;;6.07;;
70825;SDS011;58446;41.490;22.098;2023-05-18T05:30:54;12.70;;;6.15;;
70825;SDS011;58446;41.490;22.098;2023-05-18T05:33:20;12.30;;;5.87;;
70825;SDS011;58446;41.490;22.098;2023-05-18T05:35:46;13.95;;;6.03;;
70825;SDS011;58446;41.490;22.098;2023-05-18T05:38:11;14.03;;;5.73;;
70825;SDS011;58446;41.490;22.098;2023-05-18T05:40:37;11.90;;;6.72;;
70825;SDS011;58446;41.490;22.098;2023-05-18T05:43:06;14.23;;;5.83;;
70825;SDS011;58446;41.490;22.098;2023-05-18T05:45:31;11.82;;;6.28;;
70825;SDS011;58446;41.490;22.098;2023-05-18T05:47:57;11.20;;;5.38;;
70825;SDS011;58446;41.490;22.098;2023-05-18T05:50:23;9.87;;;5.17;;
70825;SDS011;58446;41.490;22.098;2023-05-18T05:52:49;10.52;;;4.82;;
70825;SDS011;58446;41.490;22.098;2023-05-18T05:55:14;10.87;;;4.57;;
70825;SDS011;58446;41.490;22.098;2023-05-18T05:57:40;9.55;;;4.90;;
70825;SDS011;58446;41.490;22.098;2023-05-18T06:00:10;8.47;;;4.47;;
70825;SDS011;58446;41.490;22.098;2023-05-18T06:02:37;10.65;;;3.95;;
70825;SDS011;58446;41.490;22.098;2023-05-18T06:05:03;8.32;;;4.05;;
70825;SDS011;58446;41.490;22.098;2023-05-18T06:07:33;7.70;;;3.90;;
70825;SDS011;58446;41.490;22.098;2023-05-18T06:09:59;7.57;;;3.40;;
70825;SDS011;58446;41.490;22.098;2023-05-18T06:12:25;6.80;;;3.23;;
70825;SDS011;58446;41.490;22.098;2023-05-18T06:14:52;7.28;;;3.05;;
70825;SDS011;58446;41.490;22.098;2023-05-18T06:17:23;7.05;;;3.30;;
70825;SDS011;58446;41.490;22.098;2023-05-18T06:19:54;6.85;;;3.38;;
70825;SDS011;58446;41.490;22.098;2023-05-18T06:22:20;7.83;;;3.20;;
70825;SDS011;58446;41.490;22.098;2023-05-18T06:24:47;7.28;;;3.10;;
70825;SDS011;58446;41.490;22.098;2023-05-18T06:27:12;5.82;;;2.70;;
70825;SDS011;58446;41.490;22.098;2023-05-18T06:29:38;7.20;;;3.53;;
70825;SDS011;58446;41.490;22.098;2023-05-18T06:32:04;8.48;;;3.10;;
70825;SDS011;58446;41.490;22.098;2023-05-18T06:34:31;6.30;;;3.50;;
70825;SDS011;58446;41.490;22.098;2023-05-18T06:36:56;7.07;;;3.40;;
70825;SDS011;58446;41.490;22.098;2023-05-18T06:39:23;6.85;;;3.55;;
70825;SDS011;58446;41.490;22.098;2023-05-18T06:41:48;7.53;;;3.67;;
70825;SDS011;58446;41.490;22.098;2023-05-18T06:44:16;7.20;;;3.70;;
70825;SDS011;58446;41.490;22.098;2023-05-18T06:46:41;6.80;;;3.95;;
70825;SDS011;58446;41.490;22.098;2023-05-18T06:49:07;7.55;;;3.90;;
70825;SDS011;58446;41.490;22.098;2023-05-18T06:51:33;8.80;;;4.13;;
70825;SDS011;58446;41.490;22.098;2023-05-18T06:53:59;6.93;;;4.25;;
70825;SDS011;58446;41.490;22.098;2023-05-18T06:56:25;6.77;;;3.87;;
70825;SDS011;58446;41.490;22.098;2023-05-18T06:58:50;7.15;;;4.35;;
70825;SDS011;58446;41.490;22.098;2023-05-18T07:01:16;10.83;;;4.60;;
70825;SDS011;58446;41.490;22.098;2023-05-18T07:03:43;10.50;;;4.70;;
70825;SDS011;58446;41.490;22.098;2023-05-18T07:06:09;7.20;;;4.32;;
70825;SDS011;58446;41.490;22.098;2023-05-18T07:08:35;8.33;;;4.73;;
70825;SDS011;58446;41.490;22.098;2023-05-18T07:11:03;9.38;;;5.38;;
70825;SDS011;58446;41.490;22.098;2023-05-18T07:13:29;8.65;;;5.22;;
70825;SDS011;58446;41.490;22.098;2023-05-18T07:15:55;9.50;;;4.93;;
70825;SDS011;58446;41.490;22.098;2023-05-18T07:18:21;11.32;;;5.53;;
70825;SDS011;58446;41.490;22.098;2023-05-18T07:20:47;8.07;;;5.57;;
70825;SDS011;58446;41.490;22.098;2023-05-18T07:23:13;9.82;;;5.25;;
70825;SDS011;58446;41.490;22.098;2023-05-18T07:25:39;8.03;;;4.77;;
70825;SDS011;58446;41.490;22.098;2023-05-18T07:28:05;8.82;;;5.57;;
70825;SDS011;58446;41.490;22.098;2023-05-18T07:30:31;8.83;;;5.70;;
70825;SDS011;58446;41.490;22.098;2023-05-18T07:32:56;8.88;;;5.25;;
70825;SDS011;58446;41.490;22.098;2023-05-18T07:35:22;8.05;;;5.35;;
70825;SDS011;58446;41.490;22.098;2023-05-18T07:37:50;7.60;;;5.20;;
70825;SDS011;58446;41.490;22.098;2023-05-18T07:40:18;7.50;;;4.72;;
70825;SDS011;58446;41.490;22.098;2023-05-18T07:42:44;9.23;;;5.60;;
70825;SDS011;58446;41.490;22.098;2023-05-18T07:45:10;7.07;;;4.82;;
70825;SDS011;58446;41.490;22.098;2023-05-18T07:47:36;8.27;;;4.60;;
70825;SDS011;58446;41.490;22.098;2023-05-18T07:50:02;7.87;;;4.63;;
70825;SDS011;58446;41.490;22.098;2023-05-18T07:52:28;7.43;;;4.68;;
70825;SDS011;58446;41.490;22.098;2023-05-18T07:54:55;7.07;;;4.22;;
70825;SDS011;58446;41.490;22.098;2023-05-18T07:57:24;8.80;;;3.97;;
70825;SDS011;58446;41.490;22.098;2023-05-18T07:59:50;6.72;;;4.28;;
70825;SDS011;58446;41.490;22.098;2023-05-18T08:02:16;6.70;;;4.10;;
70825;SDS011;58446;41.490;22.098;2023-05-18T08:04:44;6.53;;;4.13;;
70825;SDS011;58446;41.490;22.098;2023-05-18T08:07:10;7.53;;;4.18;;
70825;SDS011;58446;41.490;22.098;2023-05-18T08:09:36;6.95;;;3.60;;
70825;SDS011;58446;41.490;22.098;2023-05-18T08:12:03;6.65;;;4.18;;
70825;SDS011;58446;41.490;22.098;2023-05-18T08:14:30;6.33;;;3.97;;
70825;SDS011;58446;41.490;22.098;2023-05-18T08:16:55;8.02;;;4.20;;
70825;SDS011;58446;41.490;22.098;2023-05-18T08:19:21;6.18;;;3.95;;
70825;SDS011;58446;41.490;22.098;2023-05-18T08:21:47;6.33;;;3.97;;
70825;SDS011;58446;41.490;22.098;2023-05-18T08:24:13;7.10;;;4.80;;
70825;SDS011;58446;41.490;22.098;2023-05-18T08:26:38;8.13;;;4.97;;
70825;SDS011;58446;41.490;22.098;2023-05-18T08:29:04;7.22;;;5.00;;
70825;SDS011;58446;41.490;22.098;2023-05-18T08:31:37;7.60;;;5.65;;
70825;SDS011;58446;41.490;22.098;2023-05-18T08:34:04;8.87;;;4.57;;
70825;SDS011;58446;41.490;22.098;2023-05-18T08:36:33;7.35;;;4.68;;
70825;SDS011;58446;41.490;22.098;2023-05-18T08:39:00;6.93;;;4.40;;
70825;SDS011;58446;41.490;22.098;2023-05-18T08:41:35;6.60;;;3.90;;
70825;SDS011;58446;41.490;22.098;2023-05-18T08:44:15;9.30;;;4.47;;
70825;SDS011;58446;41.490;22.098;2023-05-18T08:46:50;7.73;;;4.07;;
70825;SDS011;58446;41.490;22.098;2023-05-18T08:49:16;7.07;;;4.25;;
70825;SDS011;58446;41.490;22.098;2023-05-18T08:51:53;6.50;;;4.03;;
70825;SDS011;58446;41.490;22.098;2023-05-18T08:54:21;6.40;;;3.80;;
70825;SDS011;58446;41.490;22.098;2023-05-18T08:56:48;6.63;;;3.60;;
70825;SDS011;58446;41.490;22.098;2023-05-18T08:59:18;6.18;;;3.60;;
70825;SDS011;58446;41.490;22.098;2023-05-18T09:01:47;6.63;;;4.20;;
70825;SDS011;58446;41.490;22.098;2023-05-18T09:04:14;8.27;;;4.20;;
70825;SDS011;58446;41.490;22.098;2023-05-18T09:06:41;6.43;;;4.03;;
70825;SDS011;58446;41.490;22.098;2023-05-18T09:09:07;8.00;;;4.10;;
70825;SDS011;58446;41.490;22.098;2023-05-18T09:11:34;7.28;;;4.75;;
70825;SDS011;58446;41.490;22.098;2023-05-18T09:14:00;7.47;;;4.10;;
70825;SDS011;58446;41.490;22.098;2023-05-18T09:16:26;8.75;;;3.88;;
70825;SDS011;58446;41.490;22.098;2023-05-18T09:18:52;7.15;;;4.25;;
70825;SDS011;58446;41.490;22.098;2023-05-18T09:21:18;7.13;;;4.30;;
70825;SDS011;58446;41.490;22.098;2023-05-18T09:23:46;7.43;;;4.38;;
70825;SDS011;58446;41.490;22.098;2023-05-18T09:26:12;6.57;;;4.25;;
70825;SDS011;58446;41.490;22.098;2023-05-18T09:28:41;7.77;;;4.13;;
70825;SDS011;58446;41.490;22.098;2023-05-18T09:31:08;6.65;;;4.07;;
70825;SDS011;58446;41.490;22.098;2023-05-18T09:33:42;7.22;;;3.92;;
70825;SDS011;58446;41.490;22.098;2023-05-18T09:36:09;8.77;;;3.30;;
70825;SDS011;58446;41.490;22.098;2023-05-18T09:38:40;7.13;;;3.60;;
70825;SDS011;58446;41.490;22.098;2023-05-18T09:41:10;6.97;;;4.50;;
70825;SDS011;58446;41.490;22.098;2023-05-18T09:43:40;5.70;;;3.40;;
70825;SDS011;58446;41.490;22.098;2023-05-18T09:46:08;7.47;;;3.90;;
70825;SDS011;58446;41.490;22.098;2023-05-18T09:48:35;7.50;;;3.78;;
70825;SDS011;58446;41.490;22.098;2023-05-18T09:51:05;6.20;;;3.30;;
70825;SDS011;58446;41.490;22.098;2023-05-18T09:53:34;6.47;;;3.07;;
70825;SDS011;58446;41.490;22.098;2023-05-18T09:56:04;6.55;;;3.55;;
70825;SDS011;58446;41.490;22.098;2023-05-18T09:58:33;6.53;;;3.80;;
70825;SDS011;58446;41.490;22.098;2023-05-18T10:01:00;6.10;;;3.53;;
70825;SDS011;58446;41.490;22.098;2023-05-18T10:03:30;6.47;;;3.15;;
70825;SDS011;58446;41.490;22.098;2023-05-18T10:06:03;6.50;;;3.50;;
70825;SDS011;58446;41.490;22.098;2023-05-18T10:08:31;5.78;;;2.70;;
70825;SDS011;58446;41.490;22.098;2023-05-18T10:10:57;5.55;;;2.92;;
70825;SDS011;58446;41.490;22.098;2023-05-18T10:13:24;5.75;;;3.40;;
70825;SDS011;58446;41.490;22.098;2023-05-18T10:15:53;6.47;;;3.25;;
70825;SDS011;58446;41.490;22.098;2023-05-18T10:18:24;7.03;;;3.40;;
70825;SDS011;58446;41.490;22.098;2023-05-18T10:20:52;6.28;;;3.20;;
70825;SDS011;58446;41.490;22.098;2023-05-18T10:23:20;6.20;;;3.17;;
70825;SDS011;58446;41.490;22.098;2023-05-18T10:25:48;5.43;;;3.28;;
70825;SDS011;58446;41.490;22.098;2023-05-18T10:28:17;5.80;;;2.78;;
70825;SDS011;58446;41.490;22.098;2023-05-18T10:30:54;5.20;;;2.97;;
70825;SDS011;58446;41.490;22.098;2023-05-18T10:33:22;6.60;;;2.97;;
70825;SDS011;58446;41.490;22.098;2023-05-18T10:35:49;6.57;;;2.80;;
70825;SDS011;58446;41.490;22.098;2023-05-18T10:38:17;5.22;;;2.70;;
70825;SDS011;58446;41.490;22.098;2023-05-18T10:40:48;4.75;;;2.45;;
70825;SDS011;58446;41.490;22.098;2023-05-18T10:43:19;6.43;;;2.83;;
70825;SDS011;58446;41.490;22.098;2023-05-18T10:45:47;6.05;;;2.78;;
70825;SDS011;58446;41.490;22.098;2023-05-18T10:48:18;5.25;;;2.70;;
70825;SDS011;58446;41.490;22.098;2023-05-18T10:50:45;5.35;;;2.40;;
70825;SDS011;58446;41.490;22.098;2023-05-18T10:53:13;5.72;;;2.75;;
70825;SDS011;58446;41.490;22.098;2023-05-18T10:55:41;9.00;;;3.10;;
70825;SDS011;58446;41.490;22.098;2023-05-18T10:58:08;5.10;;;2.60;;
70825;SDS011;58446;41.490;22.098;2023-05-18T11:00:38;7.03;;;3.30;;
70825;SDS011;58446;41.490;22.098;2023-05-18T11:03:12;4.88;;;2.63;;
70825;SDS011;58446;41.490;22.098;2023-05-18T11:05:39;5.63;;;3.17;;
70825;SDS011;58446;41.490;22.098;2023-05-18T11:08:05;5.32;;;2.72;;
70825;SDS011;58446;41.490;22.098;2023-05-18T11:10:39;6.85;;;2.97;;
70825;SDS011;58446;41.490;22.098;2023-05-18T11:13:11;6.20;;;3.05;;
70825;SDS011;58446;41.490;22.098;2023-05-18T11:18:20;5.73;;;2.90;;
70825;SDS011;58446;41.490;22.098;2023-05-18T11:21:48;6.10;;;3.10;;
70825;SDS011;58446;41.490;22.098;2023-05-18T11:27:01;6.30;;;2.28;;
70825;SDS011;58446;41.490;22.098;2023-05-18T11:29:41;7.43;;;2.72;;
70825;SDS011;58446;41.490;22.098;2023-05-18T11:32:23;5.67;;;2.70;;
70825;SDS011;58446;41.490;22.098;2023-05-18T11:34:58;6.25;;;2.63;;
70825;SDS011;58446;41.490;22.098;2023-05-18T11:42:35;5.18;;;2.47;;
70825;SDS011;58446;41.490;22.098;2023-05-18T11:45:10;5.23;;;2.23;;
70825;SDS011;58446;41.490;22.098;2023-05-18T11:47:37;6.68;;;3.38;;
70825;SDS011;58446;41.490;22.098;2023-05-18T11:50:08;5.10;;;2.65;;
70825;SDS011;58446;41.490;22.098;2023-05-18T11:52:45;5.90;;;2.80;;
70825;SDS011;58446;41.490;22.098;2023-05-18T11:55:13;5.43;;;2.67;;
70825;SDS011;58446;41.490;22.098;2023-05-18T11:57:41;5.80;;;2.60;;
70825;SDS011;58446;41.490;22.098;2023-05-18T12:00:09;5.70;;;3.25;;
70825;SDS011;58446;41.490;22.098;2023-05-18T12:02:41;5.63;;;2.72;;
70825;SDS011;58446;41.490;22.098;2023-05-18T12:05:08;4.70;;;2.10;;
70825;SDS011;58446;41.490;22.098;2023-05-18T12:07:35;4.93;;;2.60;;
70825;SDS011;58446;41.490;22.098;2023-05-18T12:10:02;5.80;;;2.67;;
70825;SDS011;58446;41.490;22.098;2023-05-18T12:12:28;4.93;;;2.47;;
70825;SDS011;58446;41.490;22.098;2023-05-18T12:14:58;5.78;;;2.63;;
70825;SDS011;58446;41.490;22.098;2023-05-18T12:17:36;5.90;;;2.60;;
70825;SDS011;58446;41.490;22.098;2023-05-18T12:20:10;4.93;;;2.47;;
70825;SDS011;58446;41.490;22.098;2023-05-18T12:22:37;5.10;;;2.33;;
70825;SDS011;58446;41.490;22.098;2023-05-18T12:25:04;4.97;;;2.50;;
70825;SDS011;58446;41.490;22.098;2023-05-18T12:27:30;5.10;;;2.30;;
70825;SDS011;58446;41.490;22.098;2023-05-18T12:30:05;6.95;;;2.50;;
70825;SDS011;58446;41.490;22.098;2023-05-18T12:32:33;4.73;;;2.63;;
70825;SDS011;58446;41.490;22.098;2023-05-18T12:34:59;4.55;;;2.28;;
70825;SDS011;58446;41.490;22.098;2023-05-18T12:37:25;4.88;;;2.75;;
70825;SDS011;58446;41.490;22.098;2023-05-18T12:39:51;5.37;;;2.80;;
70825;SDS011;58446;41.490;22.098;2023-05-18T12:42:18;5.30;;;2.45;;
70825;SDS011;58446;41.490;22.098;2023-05-18T12:44:44;4.90;;;2.28;;
70825;SDS011;58446;41.490;22.098;2023-05-18T12:47:10;4.38;;;2.25;;
70825;SDS011;58446;41.490;22.098;2023-05-18T12:49:41;5.73;;;2.07;;
70825;SDS011;58446;41.490;22.098;2023-05-18T12:52:12;4.85;;;2.17;;
70825;SDS011;58446;41.490;22.098;2023-05-18T12:54:49;5.32;;;2.30;;
70825;SDS011;58446;41.490;22.098;2023-05-18T12:57:22;5.05;;;2.25;;
70825;SDS011;58446;41.490;22.098;2023-05-18T12:59:54;5.03;;;2.25;;
70825;SDS011;58446;41.490;22.098;2023-05-18T13:02:36;4.77;;;2.47;;
70825;SDS011;58446;41.490;22.098;2023-05-18T13:07:36;5.82;;;2.20;;
70825;SDS011;58446;41.490;22.098;2023-05-18T13:10:07;6.18;;;2.20;;
70825;SDS011;58446;41.490;22.098;2023-05-18T13:12:37;5.07;;;2.30;;
70825;SDS011;58446;41.490;22.098;2023-05-18T13:15:16;6.27;;;2.30;;
70825;SDS011;58446;41.490;22.098;2023-05-18T13:20:22;5.18;;;2.55;;
70825;SDS011;58446;41.490;22.098;2023-05-18T13:22:49;5.03;;;2.22;;
70825;SDS011;58446;41.490;22.098;2023-05-18T13:25:15;5.78;;;2.90;;
70825;SDS011;58446;41.490;22.098;2023-05-18T13:27:41;5.40;;;2.63;;
70825;SDS011;58446;41.490;22.098;2023-05-18T13:30:10;5.05;;;2.67;;
70825;SDS011;58446;41.490;22.098;2023-05-18T13:32:36;7.57;;;2.90;;
70825;SDS011;58446;41.490;22.098;2023-05-18T13:35:02;5.80;;;3.00;;
70825;SDS011;58446;41.490;22.098;2023-05-18T13:37:27;6.50;;;3.25;;
70825;SDS011;58446;41.490;22.098;2023-05-18T13:39:53;6.95;;;3.13;;
70825;SDS011;58446;41.490;22.098;2023-05-18T13:42:19;6.33;;;2.97;;
70825;SDS011;58446;41.490;22.098;2023-05-18T13:44:45;5.28;;;2.53;;
70825;SDS011;58446;41.490;22.098;2023-05-18T13:47:12;7.88;;;2.58;;
70825;SDS011;58446;41.490;22.098;2023-05-18T13:49:37;5.35;;;2.90;;
70825;SDS011;58446;41.490;22.098;2023-05-18T13:52:03;7.13;;;2.93;;
70825;SDS011;58446;41.490;22.098;2023-05-18T13:54:29;10.43;;;3.30;;
70825;SDS011;58446;41.490;22.098;2023-05-18T13:56:55;7.77;;;2.90;;
70825;SDS011;58446;41.490;22.098;2023-05-18T13:59:21;5.47;;;2.80;;
70825;SDS011;58446;41.490;22.098;2023-05-18T14:01:46;7.00;;;3.40;;
70825;SDS011;58446;41.490;22.098;2023-05-18T14:04:12;6.53;;;3.00;;
70825;SDS011;58446;41.490;22.098;2023-05-18T14:06:38;5.73;;;3.03;;
70825;SDS011;58446;41.490;22.098;2023-05-18T14:09:03;6.28;;;3.03;;
70825;SDS011;58446;41.490;22.098;2023-05-18T14:11:29;5.63;;;2.90;;
70825;SDS011;58446;41.490;22.098;2023-05-18T14:13:58;6.43;;;3.20;;
70825;SDS011;58446;41.490;22.098;2023-05-18T14:16:24;5.70;;;3.10;;
70825;SDS011;58446;41.490;22.098;2023-05-18T14:18:50;9.52;;;3.63;;
70825;SDS011;58446;41.490;22.098;2023-05-18T14:21:16;6.20;;;3.67;;
70825;SDS011;58446;41.490;22.098;2023-05-18T14:23:42;7.35;;;3.70;;
70825;SDS011;58446;41.490;22.098;2023-05-18T14:26:07;9.83;;;3.97;;
70825;SDS011;58446;41.490;22.098;2023-05-18T14:28:33;7.32;;;3.70;;
70825;SDS011;58446;41.490;22.098;2023-05-18T14:30:59;8.03;;;3.87;;
70825;SDS011;58446;41.490;22.098;2023-05-18T14:33:25;6.45;;;3.63;;
70825;SDS011;58446;41.490;22.098;2023-05-18T14:35:50;9.70;;;3.97;;
70825;SDS011;58446;41.490;22.098;2023-05-18T14:38:16;10.00;;;3.90;;
70825;SDS011;58446;41.490;22.098;2023-05-18T14:40:42;6.43;;;4.28;;
70825;SDS011;58446;41.490;22.098;2023-05-18T14:43:08;7.33;;;4.47;;
70825;SDS011;58446;41.490;22.098;2023-05-18T14:45:33;8.80;;;4.28;;
70825;SDS011;58446;41.490;22.098;2023-05-18T14:47:59;7.93;;;4.37;;
70825;SDS011;58446;41.490;22.098;2023-05-18T14:50:25;6.65;;;3.97;;
70825;SDS011;58446;41.490;22.098;2023-05-18T14:52:50;8.63;;;4.10;;
70825;SDS011;58446;41.490;22.098;2023-05-18T14:55:16;8.57;;;4.68;;
70825;SDS011;58446;41.490;22.098;2023-05-18T14:57:42;7.43;;;4.40;;
70825;SDS011;58446;41.490;22.098;2023-05-18T15:00:08;7.10;;;4.22;;